Time;durP1;ratioP1;P1;durP2;ratioP2;P2;SDS_P1;SDS_P2;PMS_P1;PMS_P2;Temp;Humidity;BMP_temperature;BMP_pressure;BME280_temperature;BME280_humidity;BME280_pressure;Samples;Min_cycle;Max_cycle;Signal;HPM_P1;HPM_P2
2021/07/06 00:01:13;;;;;;;0.00;0.00;;;18.20;95.80;;;21.81;82.39;100540.44;4993557;28;97280;-73
2021/07/06 00:03:43;;;;;;;0.52;0.52;;;18.20;95.80;;;21.87;81.80;100538.16;5004856;28;97908;-73
2021/07/06 00:06:15;;;;;;;0.50;0.30;;;18.20;95.80;;;21.84;82.12;100541.66;5010631;28;97688;-74
2021/07/06 00:08:43;;;;;;;0.20;0.20;;;18.20;95.80;;;21.78;82.50;100543.16;5008080;28;97413;-74
2021/07/06 00:11:13;;;;;;;2.72;0.68;;;18.20;95.80;;;21.82;81.76;100539.28;5007274;28;97115;-73
2021/07/06 00:13:41;;;;;;;0.65;0.65;;;18.20;95.80;;;21.74;81.98;100525.97;5020882;28;96881;-73
2021/07/06 00:16:11;;;;;;;1.90;0.85;;;18.20;95.90;;;21.68;81.85;100524.78;5006959;28;97240;-74
2021/07/06 00:18:43;;;;;;;0.73;0.73;;;18.20;95.80;;;21.58;81.98;100517.28;5008079;28;97521;-74
2021/07/06 00:21:11;;;;;;;0.90;0.60;;;18.10;95.80;;;21.62;81.62;100520.84;5006203;28;97236;-73
2021/07/06 00:23:41;;;;;;;1.17;1.15;;;18.10;95.80;;;21.43;83.01;100513.69;5005370;28;97164;-73
2021/07/06 00:26:09;;;;;;;0.93;0.73;;;18.10;95.80;;;21.46;82.87;100509.41;5008395;28;96847;-73
2021/07/06 00:28:38;;;;;;;0.30;0.30;;;18.10;95.70;;;21.47;82.45;100517.22;5020692;28;96925;-74
2021/07/06 00:31:07;;;;;;;0.82;0.40;;;18.10;95.80;;;21.53;81.76;100517.66;5007176;28;97085;-74
2021/07/06 00:33:35;;;;;;;0.43;0.40;;;18.00;95.80;;;21.48;82.00;100518.00;5006965;28;98038;-73
2021/07/06 00:36:10;;;;;;;1.15;1.05;;;18.00;95.80;;;21.49;82.85;100523.06;5006439;28;97620;-74
2021/07/06 00:38:39;;;;;;;0.20;0.20;;;18.00;95.80;;;21.51;82.40;100517.25;5003093;28;97520;-73
2021/07/06 00:41:08;;;;;;;0.30;0.30;;;18.10;95.90;;;21.58;82.68;100511.84;5004770;28;97619;-73
2021/07/06 00:43:38;;;;;;;0.10;0.10;;;18.00;95.90;;;21.56;82.30;100517.66;5008377;28;97857;-73
2021/07/06 00:46:07;;;;;;;2.85;0.68;;;18.00;95.90;;;21.58;82.75;100509.09;5021345;27;98872;-73
2021/07/06 00:48:36;;;;;;;0.20;0.20;;;18.10;95.90;;;21.52;83.05;100505.94;5009935;28;97318;-73
2021/07/06 00:51:06;;;;;;;0.20;0.20;;;18.10;95.90;;;21.53;82.66;100499.34;5005807;28;96889;-74
2021/07/06 00:53:36;;;;;;;0.30;0.30;;;18.10;96.00;;;21.58;82.45;100500.94;5036169;27;97932;-74
2021/07/06 00:56:06;;;;;;;1.40;1.05;;;18.10;96.00;;;21.64;82.56;100502.16;5008068;28;96799;-73
2021/07/06 00:58:37;;;;;;;1.38;0.25;;;18.10;96.00;;;21.69;82.11;100508.03;5007246;28;96798;-74
2021/07/06 01:01:25;;;;;;;2.25;1.08;;;18.10;96.00;;;21.63;82.39;100506.84;5018194;28;96935;-74
2021/07/06 01:04:08;;;;;;;0.20;0.20;;;18.10;96.00;;;21.62;83.05;100502.56;5006106;28;96876;-74
2021/07/06 01:06:37;;;;;;;1.35;0.52;;;18.10;96.00;;;21.66;82.67;100491.66;5006523;28;97543;-74
2021/07/06 01:09:07;;;;;;;0.10;0.10;;;18.10;96.00;;;21.69;82.40;100479.97;5005968;28;96894;-74
2021/07/06 01:11:36;;;;;;;0.60;0.60;;;18.10;96.10;;;21.66;82.83;100478.81;4992275;28;96898;-74
2021/07/06 01:14:06;;;;;;;0.17;0.15;;;18.20;96.10;;;21.62;82.94;100469.03;4990896;28;96911;-74
2021/07/06 01:16:35;;;;;;;0.30;0.30;;;18.20;96.10;;;21.70;83.24;100457.78;5002660;28;96826;-74
2021/07/06 01:19:05;;;;;;;8.55;1.08;;;18.20;96.10;;;21.70;82.33;100452.34;5006121;28;96934;-74
2021/07/06 01:21:36;;;;;;;0.10;0.10;;;18.20;96.10;;;21.74;83.01;100458.59;5005093;28;96923;-74
2021/07/06 01:24:06;;;;;;;0.47;0.47;;;18.20;96.10;;;21.79;82.81;100454.72;5003689;28;97981;-74
2021/07/06 01:26:35;;;;;;;0.30;0.30;;;18.20;96.10;;;21.77;83.18;100460.53;5005928;28;97754;-74
2021/07/06 01:29:04;;;;;;;4.95;1.00;;;18.20;96.10;;;21.85;82.45;100458.63;5026076;27;97029;-74
2021/07/06 01:31:33;;;;;;;0.20;0.20;;;18.30;96.20;;;21.89;82.66;100457.47;5023160;27;97236;-74
2021/07/06 01:34:04;;;;;;;1.60;0.75;;;18.30;96.20;;;21.88;82.82;100461.38;5006171;28;98101;-74
2021/07/06 01:36:32;;;;;;;0.52;0.20;;;18.30;96.20;;;21.89;82.77;100452.00;4987136;28;97624;-74
2021/07/06 01:39:03;;;;;;;3.92;0.52;;;18.30;96.20;;;22.03;82.53;100440.38;4986393;28;96956;-74
2021/07/06 01:41:39;;;;;;;0.00;0.00;;;18.30;96.20;;;22.00;82.49;100425.56;5006115;28;96650;-74
2021/07/06 01:44:21;;;;;;;0.10;0.10;;;18.40;96.30;;;22.09;82.83;100428.72;5006732;28;97951;-74
2021/07/06 01:46:51;;;;;;;0.10;0.10;;;18.40;96.30;;;22.15;82.36;100429.88;5002666;28;97229;-74
2021/07/06 01:49:21;;;;;;;0.52;0.52;;;18.50;96.30;;;22.17;82.48;100424.81;5005411;28;96980;-74
2021/07/06 01:51:51;;;;;;;0.00;0.00;;;18.50;96.30;;;22.21;82.58;100428.34;5008623;28;97028;-74
2021/07/06 01:54:20;;;;;;;1.45;1.10;;;18.60;96.30;;;22.24;82.31;100428.34;5018909;28;97005;-74
2021/07/06 01:56:50;;;;;;;0.03;0.03;;;18.50;96.30;;;22.31;81.97;100435.78;5006402;28;97693;-74
2021/07/06 01:59:21;;;;;;;7.22;0.52;;;18.60;96.30;;;22.26;82.33;100430.72;5006498;28;96838;-75
2021/07/06 02:01:51;;;;;;;0.40;0.17;;;18.60;96.30;;;22.32;82.31;100429.16;5004771;28;97050;-74
2021/07/06 02:04:20;;;;;;;0.00;0.00;;;18.60;96.20;;;22.46;81.92;100431.94;5002783;28;96826;-74
2021/07/06 02:06:48;;;;;;;0.93;0.85;;;18.60;96.20;;;22.37;82.06;100424.16;5016582;27;97681;-74
2021/07/06 02:09:17;;;;;;;0.13;0.13;;;18.70;96.30;;;22.50;81.77;100425.31;5003886;28;96850;-74
2021/07/06 02:11:45;;;;;;;0.00;0.00;;;18.70;96.20;;;22.45;82.01;100417.53;5002416;28;97780;-74
2021/07/06 02:14:16;;;;;;;0.30;0.10;;;18.70;96.20;;;22.45;82.00;100427.66;5018068;27;96851;-74
2021/07/06 02:16:45;;;;;;;0.17;0.17;;;18.70;96.20;;;22.53;81.99;100418.31;5005106;28;97851;-74
2021/07/06 02:19:14;;;;;;;0.30;0.30;;;18.70;96.20;;;22.53;82.10;100429.25;5003529;28;97408;-74
2021/07/06 02:21:42;;;;;;;0.10;0.10;;;18.70;96.20;;;22.49;82.26;100414.78;5004072;28;97098;-74
2021/07/06 02:24:12;;;;;;;0.45;0.45;;;18.80;96.20;;;22.50;82.18;100419.06;5002341;28;96853;-75
2021/07/06 02:26:41;;;;;;;0.30;0.30;;;18.80;96.20;;;22.63;81.87;100407.38;4989486;28;96934;-74
2021/07/06 02:29:09;;;;;;;2.55;1.75;;;18.80;96.20;;;22.63;81.65;100407.38;5002742;28;96996;-74
2021/07/06 02:31:39;;;;;;;0.08;0.08;;;18.80;96.20;;;22.63;81.43;100393.72;5018961;27;96974;-74
2021/07/06 02:34:08;;;;;;;1.27;0.50;;;18.80;96.20;;;22.63;81.58;100420.25;5003140;28;97914;-73
2021/07/06 02:36:36;;;;;;;2.25;1.05;;;18.80;96.10;;;22.71;81.24;100421.81;5005986;28;96888;-73
2021/07/06 02:39:05;;;;;;;1.42;0.38;;;18.80;96.10;;;22.77;80.86;100414.78;5004276;28;96864;-73
2021/07/06 02:41:34;;;;;;;0.15;0.15;;;18.80;96.10;;;22.64;81.68;100413.63;5006910;28;96776;-73
2021/07/06 02:44:05;;;;;;;0.68;0.30;;;18.80;96.10;;;22.60;81.67;100412.84;4989506;28;97703;-73
2021/07/06 02:46:34;;;;;;;0.10;0.10;;;18.80;96.10;;;22.61;81.54;100419.88;5005062;28;97744;-73
2021/07/06 02:49:06;;;;;;;0.10;0.10;;;18.80;96.10;;;22.70;81.41;100414.78;5004228;28;96845;-73
2021/07/06 02:51:35;;;;;;;0.10;0.10;;;18.80;96.10;;;22.75;80.97;100411.66;5003337;28;97023;-73
2021/07/06 02:54:05;;;;;;;0.03;0.03;;;18.80;96.10;;;22.71;81.03;100416.34;5003294;28;97207;-73
2021/07/06 02:56:33;;;;;;;1.17;0.65;;;18.80;96.10;;;22.75;80.76;100406.22;5004264;28;98044;-73
2021/07/06 02:59:04;;;;;;;0.00;0.00;;;18.80;96.10;;;22.78;80.70;100411.69;5005479;28;97233;-73
2021/07/06 03:01:33;;;;;;;0.03;0.03;;;18.80;96.10;;;22.74;80.68;100404.66;5001923;28;96998;-73
2021/07/06 03:04:02;;;;;;;1.27;0.43;;;18.80;96.10;;;22.68;80.65;100396.09;5005417;28;98032;-73
2021/07/06 03:06:32;;;;;;;0.38;0.38;;;18.80;96.10;;;22.65;81.40;100401.53;5004584;28;98176;-74
2021/07/06 03:09:05;;;;;;;0.20;0.20;;;18.80;96.10;;;22.63;80.99;100392.94;5005639;28;97281;-73
2021/07/06 03:11:34;;;;;;;0.30;0.30;;;18.70;96.10;;;22.65;80.72;100391.38;5002440;28;96999;-73
2021/07/06 03:14:04;;;;;;;0.10;0.10;;;18.70;96.10;;;22.60;80.76;100375.38;5025982;27;97208;-73
2021/07/06 03:16:33;;;;;;;0.00;0.00;;;18.70;96.00;;;22.60;80.72;100366.41;5007702;28;97523;-73
2021/07/06 03:19:04;;;;;;;0.00;0.00;;;18.70;96.10;;;22.56;81.14;100368.38;5007668;28;97438;-73
2021/07/06 03:21:34;;;;;;;0.35;0.35;;;18.70;96.10;;;22.58;80.51;100349.66;5011040;28;96956;-73
2021/07/06 03:24:05;;;;;;;0.00;0.00;;;18.70;96.10;;;22.57;80.26;100351.59;5007303;28;97909;-73
2021/07/06 03:26:34;;;;;;;0.32;0.32;;;18.60;96.00;;;22.46;80.28;100363.66;5009741;28;97293;-73
2021/07/06 03:29:04;;;;;;;0.00;0.00;;;18.60;96.00;;;22.34;80.92;100355.84;5003608;28;96808;-73
2021/07/06 03:31:33;;;;;;;0.00;0.00;;;18.60;96.00;;;22.19;81.69;100351.53;5006678;28;97015;-73
2021/07/06 03:34:04;;;;;;;0.10;0.10;;;18.60;96.00;;;22.28;81.25;100335.56;5011008;28;98035;-73
2021/07/06 03:36:34;;;;;;;0.00;0.00;;;18.50;96.00;;;22.38;80.68;100332.09;5006047;28;97053;-73
2021/07/06 03:39:05;;;;;;;0.00;0.00;;;18.50;96.00;;;22.40;80.47;100338.72;4985568;28;96893;-74
2021/07/06 03:41:33;;;;;;;0.17;0.17;;;18.50;96.00;;;22.43;80.64;100328.97;5001434;28;97540;-74
2021/07/06 03:44:04;;;;;;;0.40;0.20;;;18.50;96.00;;;22.38;80.21;100326.63;5002964;28;98072;-73
2021/07/06 03:46:34;;;;;;;0.25;0.20;;;18.50;96.00;;;22.35;79.88;100321.91;5004833;28;96988;-73
2021/07/06 03:49:05;;;;;;;0.00;0.00;;;18.50;95.90;;;22.31;80.14;100315.69;5008176;28;96891;-73
2021/07/06 03:51:35;;;;;;;0.30;0.30;;;18.50;95.80;;;22.28;79.94;100311.00;5006243;28;96683;-73
2021/07/06 03:54:04;;;;;;;0.52;0.30;;;18.50;95.80;;;22.23;80.17;100308.66;5028885;27;97876;-73
2021/07/06 03:56:33;;;;;;;0.93;0.20;;;18.40;95.70;;;22.21;79.76;100300.06;5009274;28;97818;-73
2021/07/06 03:59:04;;;;;;;0.15;0.15;;;18.50;95.70;;;22.25;79.62;100292.66;5027780;27;97244;-74
2021/07/06 04:01:34;;;;;;;0.10;0.10;;;18.40;95.70;;;22.17;79.79;100282.91;4991493;28;97084;-74
2021/07/06 04:04:06;;;;;;;2.03;0.43;;;18.40;95.60;;;22.17;79.62;100288.34;5006791;28;97292;-73
2021/07/06 04:06:36;;;;;;;1.35;0.38;;;18.40;95.70;;;22.22;79.96;100285.28;5007638;28;97664;-73
2021/07/06 04:09:05;;;;;;;0.30;0.30;;;18.40;95.70;;;22.27;79.92;100299.28;5009888;28;96832;-73
2021/07/06 04:11:34;;;;;;;3.92;1.38;;;18.40;95.70;;;22.40;79.81;100295.03;5010108;28;97077;-73
2021/07/06 04:14:05;;;;;;;0.10;0.10;;;18.40;95.70;;;22.60;79.46;100290.72;5005900;28;96888;-73
2021/07/06 04:16:35;;;;;;;0.00;0.00;;;18.50;95.80;;;22.78;79.37;100288.75;5004669;28;98361;-73
2021/07/06 04:19:06;;;;;;;0.13;0.13;;;18.60;95.80;;;22.98;79.27;100280.88;5004465;28;97080;-74
2021/07/06 04:21:36;;;;;;;0.00;0.00;;;18.70;95.70;;;23.06;79.29;100279.69;5007635;28;96755;-74
2021/07/06 04:24:06;;;;;;;0.28;0.20;;;18.90;95.70;;;23.13;79.23;100268.78;5007359;28;96977;-74
2021/07/06 04:26:34;;;;;;;0.00;0.00;;;18.90;95.60;;;23.15;79.12;100267.19;5006010;28;98527;-73
2021/07/06 04:29:04;;;;;;;0.90;0.20;;;19.00;95.50;;;23.26;78.71;100269.88;5027253;27;97205;-73
2021/07/06 04:31:33;;;;;;;0.57;0.22;;;19.10;95.50;;;23.36;78.78;100277.25;5026724;27;97026;-74
2021/07/06 04:34:03;;;;;;;0.10;0.10;;;19.20;95.50;;;23.48;78.72;100274.06;5007405;28;98140;-74
2021/07/06 04:36:32;;;;;;;0.10;0.10;;;19.30;95.40;;;23.63;78.31;100279.06;5007820;28;97968;-74
2021/07/06 04:39:03;;;;;;;1.05;0.20;;;19.40;95.30;;;23.78;78.11;100283.25;5001290;28;97016;-74
2021/07/06 04:41:32;;;;;;;0.20;0.20;;;19.40;95.20;;;23.89;78.54;100273.06;5006595;28;96690;-74
2021/07/06 04:44:01;;;;;;;0.00;0.00;;;19.60;95.10;;;24.23;77.51;100271.25;5003099;28;97130;-74
2021/07/06 04:46:31;;;;;;;0.00;0.00;;;19.70;95.00;;;24.18;77.39;100258.75;5006631;28;97993;-74
2021/07/06 04:49:00;;;;;;;0.15;0.15;;;19.80;94.80;;;24.14;77.36;100262.69;5007925;28;96688;-74
2021/07/06 04:51:32;;;;;;;0.10;0.10;;;19.80;94.80;;;23.95;78.13;100252.31;5040019;27;97102;-74
2021/07/06 04:54:04;;;;;;;0.22;0.22;;;19.80;94.80;;;23.84;78.66;100253.56;5006968;28;97136;-74
2021/07/06 04:56:32;;;;;;;0.10;0.10;;;19.80;94.70;;;23.75;79.00;100261.41;5007930;28;97678;-74
2021/07/06 04:59:03;;;;;;;0.00;0.00;;;19.80;94.80;;;23.83;78.27;100260.22;5007383;28;97014;-74
2021/07/06 05:01:31;;;;;;;0.00;0.00;;;19.70;94.80;;;23.80;78.28;100258.25;5004861;28;97249;-74
2021/07/06 05:04:00;;;;;;;0.10;0.10;;;19.70;94.80;;;23.71;78.43;100242.28;5007862;28;97819;-74
2021/07/06 05:06:32;;;;;;;0.30;0.25;;;19.70;94.80;;;23.77;78.02;100240.66;5022442;27;97656;-74
2021/07/06 05:09:03;;;;;;;0.00;0.00;;;19.70;94.90;;;23.85;78.25;100242.19;5007164;28;96973;-74
2021/07/06 05:11:32;;;;;;;0.73;0.40;;;19.70;94.80;;;23.82;78.30;100234.03;5007397;28;96990;-74
2021/07/06 05:14:01;;;;;;;0.10;0.08;;;19.70;94.90;;;23.92;77.89;100245.66;5003813;28;98046;-74
2021/07/06 05:16:31;;;;;;;0.00;0.00;;;19.70;94.80;;;24.21;77.95;100248.97;5003668;28;97977;-74
2021/07/06 05:19:00;;;;;;;0.10;0.10;;;19.90;94.90;;;24.90;76.73;100247.50;5005046;28;96873;-74
2021/07/06 05:21:30;;;;;;;0.15;0.15;;;20.10;94.80;;;25.29;75.55;100252.53;5007765;28;98091;-74
2021/07/06 05:24:11;;;;;;;0.47;0.30;;;20.50;94.40;;;25.21;75.85;100256.56;5004994;28;96896;-74
2021/07/06 05:26:40;;;;;;;0.00;0.00;;;20.70;94.00;;;25.02;76.79;100263.44;5021787;27;97423;-75
2021/07/06 05:29:09;;;;;;;0.10;0.10;;;20.70;93.90;;;24.98;76.50;100272.88;5010408;28;97559;-75
2021/07/06 05:31:38;;;;;;;2.38;1.00;;;20.70;94.00;;;24.85;77.02;100278.09;5029367;27;97174;-75
2021/07/06 05:34:07;;;;;;;0.32;0.22;;;20.60;94.00;;;24.75;77.23;100270.78;5007022;28;97198;-75
2021/07/06 05:36:36;;;;;;;0.00;0.00;;;20.60;94.10;;;24.67;77.71;100268.50;5029945;27;97861;-74
2021/07/06 05:39:07;;;;;;;0.00;0.00;;;20.60;94.20;;;24.58;78.17;100282.69;4988787;28;97722;-75
2021/07/06 05:41:37;;;;;;;0.00;0.00;;;20.50;94.30;;;24.58;78.46;100279.94;5004350;28;97304;-75
2021/07/06 05:44:08;;;;;;;0.00;0.00;;;20.50;94.40;;;24.41;78.67;100280.88;5005629;28;98125;-75
2021/07/06 05:46:37;;;;;;;8.30;0.45;;;20.50;94.40;;;24.29;79.40;100264.91;5005837;28;98165;-75
2021/07/06 05:49:06;;;;;;;0.00;0.00;;;20.40;94.50;;;24.47;78.75;100275.69;5024253;27;97079;-74
2021/07/06 05:51:34;;;;;;;0.00;0.00;;;20.50;94.70;;;24.53;79.27;100271.41;5004885;28;96786;-75
2021/07/06 05:54:05;;;;;;;0.00;0.00;;;20.50;94.60;;;24.58;79.21;100265.47;5016034;27;97255;-75
2021/07/06 05:56:34;;;;;;;0.03;0.03;;;20.50;94.60;;;24.58;78.56;100263.50;5004722;28;97703;-75
2021/07/06 05:59:06;;;;;;;0.32;0.17;;;20.50;94.60;;;24.61;79.05;100264.66;5001292;28;97119;-74
2021/07/06 06:01:35;;;;;;;0.10;0.10;;;20.60;94.60;;;24.71;78.77;100270.03;5003242;28;97339;-74
2021/07/06 06:04:04;;;;;;;0.05;0.03;;;20.70;94.60;;;24.85;78.27;100258.91;5001464;28;98122;-75
2021/07/06 06:06:33;;;;;;;0.08;0.08;;;20.70;94.60;;;24.84;78.44;100246.38;5003670;28;99071;-75
2021/07/06 06:09:05;;;;;;;0.05;0.05;;;20.80;94.50;;;25.05;78.38;100259.06;4988331;28;97104;-74
2021/07/06 06:11:34;;;;;;;0.10;0.10;;;20.80;94.50;;;25.15;78.17;100258.19;5001709;28;96964;-75
2021/07/06 06:14:06;;;;;;;0.30;0.20;;;20.90;94.50;;;25.23;77.60;100256.94;5001602;28;98096;-75
2021/07/06 06:16:34;;;;;;;0.00;0.00;;;21.00;94.40;;;25.08;78.02;100266.50;5004196;28;97321;-75
2021/07/06 06:19:06;;;;;;;0.00;0.00;;;21.00;94.40;;;24.81;79.06;100263.66;5006553;28;97083;-74
2021/07/06 06:21:35;;;;;;;0.00;0.00;;;20.90;94.50;;;24.68;79.75;100270.84;5008027;28;97235;-74
2021/07/06 06:24:05;;;;;;;0.00;0.00;;;20.90;94.60;;;24.81;79.44;100255.44;5002316;28;96880;-74
2021/07/06 06:26:34;;;;;;;5.38;0.30;;;20.90;94.60;;;24.81;79.15;100263.66;5004874;28;97596;-74
2021/07/06 06:29:05;;;;;;;0.00;0.00;;;20.90;94.70;;;24.89;78.85;100254.16;5002134;28;96759;-74
2021/07/06 06:31:34;;;;;;;0.00;0.00;;;20.90;94.70;;;24.82;79.12;100248.75;5007367;28;97126;-74
2021/07/06 06:34:04;;;;;;;2.75;0.85;;;20.90;94.70;;;24.87;79.33;100231.09;5005445;28;97699;-74
2021/07/06 06:36:33;;;;;;;0.10;0.10;;;20.90;94.70;;;24.93;78.86;100219.28;5001568;28;96826;-74
2021/07/06 06:39:04;;;;;;;0.28;0.28;;;20.90;94.70;;;24.89;78.75;100228.72;5034095;27;96985;-74
2021/07/06 06:41:33;;;;;;;0.75;0.50;;;20.90;94.70;;;24.74;79.48;100238.28;5001443;28;97426;-75
2021/07/06 06:44:04;;;;;;;0.15;0.05;;;20.90;94.70;;;24.73;79.45;100232.03;4998974;28;97837;-74
2021/07/06 06:46:35;;;;;;;0.00;0.00;;;20.90;94.70;;;24.86;79.43;100251.47;5004403;28;96983;-75
2021/07/06 06:49:06;;;;;;;0.10;0.00;;;20.90;94.70;;;24.84;79.69;100242.88;4990146;28;96981;-74
2021/07/06 06:51:36;;;;;;;0.00;0.00;;;20.90;94.70;;;24.86;79.82;100254.22;5008511;28;96888;-75
2021/07/06 06:54:04;;;;;;;0.20;0.20;;;21.00;94.70;;;24.89;79.57;100237.72;5009723;28;98231;-74
2021/07/06 06:56:35;;;;;;;0.08;0.08;;;21.00;94.80;;;24.96;79.04;100245.88;5011671;28;97742;-74
2021/07/06 06:59:06;;;;;;;0.88;0.32;;;21.00;94.80;;;25.05;79.01;100246.16;5009222;28;96838;-74
2021/07/06 07:01:38;;;;;;;0.80;0.60;;;21.00;94.80;;;25.11;78.80;100262.94;4990783;28;97050;-76
2021/07/06 07:04:08;;;;;;;0.00;0.00;;;21.00;94.80;;;25.12;78.99;100259.78;5009411;28;97988;-77
2021/07/06 07:06:37;;;;;;;0.00;0.00;;;21.10;94.80;;;25.14;79.00;100246.44;5010477;28;97220;-76
2021/07/06 07:09:09;;;;;;;0.10;0.10;;;21.10;94.70;;;25.13;78.94;100241.38;5006104;28;96946;-75
2021/07/06 07:11:38;;;;;;;0.00;0.00;;;21.10;94.70;;;25.03;79.17;100239.50;4992461;28;97463;-75
2021/07/06 07:14:07;;;;;;;0.35;0.28;;;21.10;94.60;;;25.02;79.01;100246.19;5006881;28;97000;-76
2021/07/06 07:16:37;;;;;;;0.15;0.15;;;21.10;94.70;;;25.06;79.01;100236.75;5003352;28;97674;-77
2021/07/06 07:19:05;;;;;;;0.00;0.00;;;21.10;94.60;;;25.00;78.96;100245.81;5006485;28;96903;-76
2021/07/06 07:21:34;;;;;;;0.10;0.10;;;21.10;94.60;;;24.83;79.62;100260.53;5025810;27;96917;-76
2021/07/06 07:24:06;;;;;;;0.68;0.25;;;21.00;94.70;;;24.83;79.99;100252.28;5009114;28;97072;-75
2021/07/06 07:26:35;;;;;;;1.27;0.87;;;21.10;94.70;;;24.79;79.68;100260.53;5007219;28;97935;-75
2021/07/06 07:29:05;;;;;;;0.00;0.00;;;21.00;94.70;;;24.98;79.58;100257.22;5001821;28;96738;-76
2021/07/06 07:31:36;;;;;;;0.10;0.10;;;21.00;94.70;;;25.06;79.31;100250.44;5015545;28;97180;-76
2021/07/06 07:34:05;;;;;;;0.00;0.00;;;21.10;94.70;;;25.09;78.80;100257.84;5008399;28;97934;-74
2021/07/06 07:36:33;;;;;;;0.00;0.00;;;21.10;94.60;;;25.02;79.66;100246.97;5006355;28;97969;-75
2021/07/06 07:39:05;;;;;;;0.10;0.10;;;21.10;94.60;;;24.94;79.72;100256.47;5007162;28;96708;-75
2021/07/06 07:41:34;;;;;;;2.78;1.13;;;21.10;94.60;;;25.00;79.26;100251.31;5023756;27;96852;-75
2021/07/06 07:44:05;;;;;;;47.03;0.88;;;21.10;94.60;;;25.09;79.12;100251.59;5006240;28;96898;-74
2021/07/06 07:46:34;;;;;;;0.00;0.00;;;21.10;94.60;;;25.05;78.87;100240.66;5008863;28;97709;-76
2021/07/06 07:49:06;;;;;;;0.45;0.45;;;21.20;94.60;;;25.08;79.33;100233.59;5006338;28;96999;-76
2021/07/06 07:51:35;;;;;;;0.00;0.00;;;21.20;94.60;;;25.12;78.82;100239.81;5008653;28;97195;-76
2021/07/06 07:54:04;;;;;;;0.10;0.03;;;21.20;94.60;;;25.15;78.93;100234.28;5005604;28;98043;-76
2021/07/06 07:56:32;;;;;;;0.00;0.00;;;21.20;94.60;;;25.31;78.87;100239.19;5004747;28;97330;-76
2021/07/06 07:59:04;;;;;;;0.00;0.00;;;21.30;94.60;;;25.49;78.64;100237.75;5007284;28;97368;-76
2021/07/06 08:01:32;;;;;;;0.60;0.60;;;21.40;94.40;;;25.66;77.85;100231.25;5005672;28;96946;-75
2021/07/06 08:04:07;;;;;;;0.03;0.03;;;21.50;94.30;;;25.82;77.42;100226.69;5002506;28;97938;-76
2021/07/06 08:06:36;;;;;;;0.08;0.08;;;21.60;94.20;;;25.93;77.42;100237.53;5002880;28;100257;-75
2021/07/06 08:09:05;;;;;;;0.00;0.00;;;21.70;94.10;;;26.11;77.21;100229.75;4985791;28;97107;-76
2021/07/06 08:11:34;;;;;;;0.05;0.05;;;21.80;94.00;;;26.16;76.89;100226.56;5004186;28;96922;-77
2021/07/06 08:14:04;;;;;;;8.77;0.95;;;21.90;93.90;;;26.31;76.52;100233.34;5005651;28;98053;-76
2021/07/06 08:16:33;;;;;;;0.00;0.00;;;22.00;93.70;;;26.49;76.38;100242.88;5001356;28;96891;-75
2021/07/06 08:19:07;;;;;;;5.55;0.95;;;22.10;93.60;;;26.57;76.25;100238.03;5007037;28;96759;-75
2021/07/06 08:21:36;;;;;;;0.00;0.00;;;22.30;93.50;;;26.66;75.82;100244.53;4992401;28;97360;-75
2021/07/06 08:24:06;;;;;;;0.00;0.00;;;22.40;93.30;;;26.78;75.80;100227.41;5005634;28;96869;-76
2021/07/06 08:26:36;;;;;;;0.65;0.22;;;22.50;93.20;;;26.93;75.13;100230.63;5003695;28;96859;-74
2021/07/06 08:29:05;;;;;;;0.05;0.05;;;22.50;93.20;;;27.10;75.00;100235.81;5037538;27;96920;-75
2021/07/06 08:31:34;;;;;;;1.65;0.60;;;22.70;93.10;;;27.43;74.16;100241.00;5040197;27;97039;-75
2021/07/06 08:34:06;;;;;;;0.35;0.35;;;22.80;92.90;;;27.59;73.84;100238.25;5007882;28;96971;-75
2021/07/06 08:36:35;;;;;;;0.20;0.20;;;23.00;92.70;;;27.95;72.77;100252.81;5005910;28;97186;-75
2021/07/06 08:39:05;;;;;;;0.25;0.25;;;23.20;92.50;;;27.97;73.09;100250.41;5005694;28;96927;-76
2021/07/06 08:41:35;;;;;;;0.22;0.17;;;23.30;92.30;;;28.12;72.97;100253.59;5003921;28;99447;-75
2021/07/06 08:44:06;;;;;;;0.05;0.05;;;23.50;92.10;;;28.25;72.68;100246.16;5006851;28;96999;-74
2021/07/06 08:46:38;;;;;;;7.93;0.30;;;23.60;92.10;;;28.26;72.45;100245.75;5022286;28;97602;-74
2021/07/06 08:49:12;;;;;;;0.00;0.00;;;23.70;91.90;;;28.22;72.71;100258.03;5005645;28;97342;-76
2021/07/06 08:51:43;;;;;;;0.80;0.13;;;23.70;91.70;;;28.15;73.02;100238.94;5006071;28;97231;-75
2021/07/06 08:54:12;;;;;;;0.00;0.00;;;23.70;91.60;;;28.40;72.19;100264.69;5034300;27;99703;-76
2021/07/06 08:56:41;;;;;;;0.00;0.00;;;23.80;91.60;;;28.43;72.12;100252.78;5005942;28;97921;-76
2021/07/06 08:59:30;;;;;;;0.20;0.15;;;23.90;91.40;;;28.36;72.66;100257.72;5004808;28;96905;-76
2021/07/06 09:01:58;;;;;;;0.00;0.00;;;23.90;91.40;;;28.38;72.94;100261.59;5005057;28;97483;-76
2021/07/06 09:04:45;;;;;;;0.10;0.10;;;24.00;91.50;;;28.80;71.85;100260.47;5003215;28;96921;-76
2021/07/06 09:07:15;;;;;;;0.00;0.00;;;24.10;91.40;;;29.15;70.86;100263.03;5004643;28;97725;-75
2021/07/06 09:09:44;;;;;;;0.00;0.00;;;24.30;91.30;;;29.39;70.42;100255.25;5003866;28;99989;-76
2021/07/06 09:12:14;;;;;;;0.35;0.35;;;24.50;91.20;;;29.69;69.63;100263.03;5004179;28;96689;-75
2021/07/06 09:14:48;;;;;;;0.00;0.00;;;24.60;91.00;;;29.73;69.23;100266.47;4999339;28;100640;-76
2021/07/06 09:17:22;;;;;;;2.75;0.30;;;24.80;90.50;;;30.00;68.25;100266.78;5007396;28;97690;-76
2021/07/06 09:19:55;;;;;;;0.10;0.00;;;24.90;90.20;;;30.29;67.46;100268.22;5002736;28;96787;-76
2021/07/06 09:22:30;;;;;;;0.00;0.00;;;25.00;90.20;;;30.62;66.53;100277.78;5003209;28;97553;-77
2021/07/06 09:25:28;;;;;;;0.10;0.10;;;25.20;89.90;;;30.52;66.97;100281.66;5001468;28;96874;-77
2021/07/06 09:27:56;;;;;;;0.00;0.00;;;25.30;89.60;;;30.13;68.54;100290.44;4999084;28;98012;-78
2021/07/06 09:30:26;;;;;;;0.10;0.10;;;25.30;89.40;;;29.68;69.86;100267.00;5002483;28;97504;-76
2021/07/06 09:32:57;;;;;;;0.00;0.00;;;25.30;89.60;;;29.45;70.68;100261.81;5004401;28;97010;-77
2021/07/06 09:35:30;;;;;;;0.00;0.00;;;25.10;90.00;;;29.40;71.49;100278.88;5008975;28;97003;-77
2021/07/06 09:38:04;;;;;;;0.10;0.10;;;25.10;90.20;;;29.37;70.89;100285.28;5004848;28;96952;-75
2021/07/06 09:40:36;;;;;;;0.00;0.00;;;25.10;90.20;;;29.16;71.70;100294.94;5002410;28;96795;-76
2021/07/06 09:43:22;;;;;;;1.48;0.77;;;25.00;90.20;;;29.07;72.05;100281.03;5001926;28;97521;-76
2021/07/06 09:46:09;;;;;;;0.10;0.10;;;24.90;90.20;;;29.06;72.02;100293.28;5000532;28;96845;-76
2021/07/06 09:48:43;;;;;;;0.00;0.00;;;24.90;90.60;;;29.04;72.01;100273.63;5003243;28;96837;-75
2021/07/06 09:51:18;;;;;;;1.17;0.75;;;24.90;90.60;;;28.83;72.87;100281.69;5000697;28;97438;-76
2021/07/06 09:53:51;;;;;;;0.28;0.20;;;24.80;90.50;;;28.98;72.38;100287.63;5003643;27;97303;-76
2021/07/06 09:56:24;;;;;;;0.00;0.00;;;24.80;90.60;;;30.27;68.53;100292.75;5002884;28;96922;-76
2021/07/06 09:58:59;;;;;;;0.43;0.40;;;24.90;90.60;;;31.48;65.09;100308.28;4985576;28;97982;-76
2021/07/06 10:01:30;;;;;;;0.00;0.00;;;25.30;90.50;;;31.49;65.23;100302.25;5002091;28;96838;-76
2021/07/06 10:04:00;;;;;;;0.80;0.63;;;25.70;90.00;;;31.39;65.90;100305.44;5001735;28;97294;-75
2021/07/06 10:06:31;;;;;;;0.00;0.00;;;25.90;89.30;;;31.16;66.65;100300.38;5004195;28;97931;-76
2021/07/06 10:09:00;;;;;;;0.00;0.00;;;26.00;88.80;;;31.03;67.20;100311.47;4985742;28;97643;-77
2021/07/06 10:11:33;;;;;;;;;;;26.10;88.30;;;30.89;67.50;100308.44;5020608;28;97032;-76
2021/07/06 10:14:03;;;;;;;0.03;0.03;;;26.10;87.60;;;30.77;68.24;100300.94;5007335;28;96895;-76
2021/07/06 10:16:32;;;;;;;0.08;0.08;;;26.10;88.30;;;30.78;68.00;100325.41;4999880;28;97560;-75
2021/07/06 10:19:03;;;;;;;0.00;0.00;;;26.10;88.20;;;30.97;67.57;100324.34;5006325;28;97647;-76
2021/07/06 10:21:34;;;;;;;0.00;0.00;;;26.10;88.20;;;30.66;68.35;100335.75;5002014;28;96938;-76
2021/07/06 10:24:05;;;;;;;0.00;0.00;;;26.10;87.80;;;30.80;68.00;100336.81;5002794;28;97243;-78
2021/07/06 10:26:38;;;;;;;0.00;0.00;;;26.10;87.60;;;31.43;66.73;100331.78;4999933;28;97886;-77